sensor_id;sensor_type;location;lat;lon;timestamp;pressure;altitude;pressure_sealevel;temperature;humidity
83563;BME280;73535;52.500;13.482;2024-01-11T00:00:46;102800.72;;;-4.57;73.44
83563;BME280;73535;52.500;13.482;2024-01-11T00:03:11;102798.81;;;-4.64;73.50
83563;BME280;73535;52.500;13.482;2024-01-11T00:05:36;102790.22;;;-4.66;73.34
83563;BME280;73535;52.500;13.482;2024-01-11T00:08:02;102789.84;;;-4.79;73.57
83563;BME280;73535;52.500;13.482;2024-01-11T00:10:27;102789.00;;;-4.78;74.01
83563;BME280;73535;52.500;13.482;2024-01-11T00:12:52;102787.53;;;-4.70;73.91
83563;BME280;73535;52.500;13.482;2024-01-11T00:15:18;102807.13;;;-4.72;73.35
83563;BME280;73535;52.500;13.482;2024-01-11T00:17:43;102796.13;;;-4.68;73.26
83563;BME280;73535;52.500;13.482;2024-01-11T00:20:08;102785.91;;;-4.67;73.37
83563;BME280;73535;52.500;13.482;2024-01-11T00:22:34;102777.28;;;-4.70;73.61
83563;BME280;73535;52.500;13.482;2024-01-11T00:24:59;102768.56;;;-4.75;73.46
83563;BME280;73535;52.500;13.482;2024-01-11T00:27:25;102774.66;;;-4.72;73.74
83563;BME280;73535;52.500;13.482;2024-01-11T00:29:50;102764.44;;;-4.70;73.82
83563;BME280;73535;52.500;13.482;2024-01-11T00:32:15;102769.41;;;-4.76;73.64
83563;BME280;73535;52.500;13.482;2024-01-11T00:34:41;102752.38;;;-4.74;73.72
83563;BME280;73535;52.500;13.482;2024-01-11T00:37:06;102755.72;;;-4.77;73.97
83563;BME280;73535;52.500;13.482;2024-01-11T00:39:31;102745.25;;;-4.84;74.37
83563;BME280;73535;52.500;13.482;2024-01-11T00:41:56;102754.09;;;-4.73;73.91
83563;BME280;73535;52.500;13.482;2024-01-11T00:44:22;102743.00;;;-4.72;74.26
83563;BME280;73535;52.500;13.482;2024-01-11T00:46:47;102719.97;;;-4.71;74.88
83563;BME280;73535;52.500;13.482;2024-01-11T00:49:12;102718.31;;;-4.69;74.37
83563;BME280;73535;52.500;13.482;2024-01-11T00:51:38;102719.09;;;-4.71;74.52
83563;BME280;73535;52.500;13.482;2024-01-11T00:54:03;102724.16;;;-4.74;74.48
83563;BME280;73535;52.500;13.482;2024-01-11T00:56:28;102734.16;;;-4.83;75.04
83563;BME280;73535;52.500;13.482;2024-01-11T00:58:53;102711.97;;;-4.83;75.01
83563;BME280;73535;52.500;13.482;2024-01-11T01:01:19;102711.16;;;-4.82;74.97
83563;BME280;73535;52.500;13.482;2024-01-11T01:03:44;102717.09;;;-4.83;75.71
83563;BME280;73535;52.500;13.482;2024-01-11T01:06:09;102733.03;;;-4.94;76.16
83563;BME280;73535;52.500;13.482;2024-01-11T01:08:34;102716.88;;;-4.90;76.05
83563;BME280;73535;52.500;13.482;2024-01-11T01:10:59;102675.19;;;-4.83;75.97
83563;BME280;73535;52.500;13.482;2024-01-11T01:13:25;102669.03;;;-4.90;76.29
83563;BME280;73535;52.500;13.482;2024-01-11T01:15:50;102685.53;;;-4.79;76.13
83563;BME280;73535;52.500;13.482;2024-01-11T01:18:15;102684.84;;;-4.73;76.35
83563;BME280;73535;52.500;13.482;2024-01-11T01:20:41;102688.88;;;-4.83;76.50
83563;BME280;73535;52.500;13.482;2024-01-11T01:23:06;102689.06;;;-4.75;76.19
83563;BME280;73535;52.500;13.482;2024-01-11T01:25:31;102694.25;;;-4.74;75.71
83563;BME280;73535;52.500;13.482;2024-01-11T01:27:58;102698.59;;;-4.70;75.68
83563;BME280;73535;52.500;13.482;2024-01-11T01:30:24;102698.69;;;-4.67;75.85
83563;BME280;73535;52.500;13.482;2024-01-11T01:32:49;102697.88;;;-4.66;75.36
83563;BME280;73535;52.500;13.482;2024-01-11T01:35:14;102706.44;;;-4.65;75.52
83563;BME280;73535;52.500;13.482;2024-01-11T01:37:40;102708.19;;;-4.63;75.86
83563;BME280;73535;52.500;13.482;2024-01-11T01:40:05;102709.00;;;-4.65;75.66
83563;BME280;73535;52.500;13.482;2024-01-11T01:42:32;102708.28;;;-4.60;75.90
83563;BME280;73535;52.500;13.482;2024-01-11T01:44:57;102709.16;;;-4.59;75.73
83563;BME280;73535;52.500;13.482;2024-01-11T01:47:23;102696.34;;;-4.58;75.93
83563;BME280;73535;52.500;13.482;2024-01-11T01:49:48;102701.56;;;-4.54;75.46
83563;BME280;73535;52.500;13.482;2024-01-11T01:52:14;102704.03;;;-4.59;75.49
83563;BME280;73535;52.500;13.482;2024-01-11T01:54:39;102699.88;;;-4.54;75.99
83563;BME280;73535;52.500;13.482;2024-01-11T01:57:06;102706.44;;;-4.64;76.10
83563;BME280;73535;52.500;13.482;2024-01-11T01:59:32;102707.16;;;-4.69;75.62
83563;BME280;73535;52.500;13.482;2024-01-11T02:01:58;102732.91;;;-4.66;76.06
83563;BME280;73535;52.500;13.482;2024-01-11T02:04:23;102725.03;;;-4.74;76.38
83563;BME280;73535;52.500;13.482;2024-01-11T02:06:50;102724.38;;;-4.65;76.40
83563;BME280;73535;52.500;13.482;2024-01-11T02:09:17;102720.16;;;-4.63;76.29
83563;BME280;73535;52.500;13.482;2024-01-11T02:11:43;102731.31;;;-4.61;76.00
83563;BME280;73535;52.500;13.482;2024-01-11T02:14:10;102752.63;;;-4.64;76.21
83563;BME280;73535;52.500;13.482;2024-01-11T02:16:35;102739.22;;;-4.86;77.97
83563;BME280;73535;52.500;13.482;2024-01-11T02:19:00;102743.88;;;-4.72;77.37
83563;BME280;73535;52.500;13.482;2024-01-11T02:21:27;102740.28;;;-4.78;77.50
83563;BME280;73535;52.500;13.482;2024-01-11T02:24:03;102734.50;;;-4.70;77.98
83563;BME280;73535;52.500;13.482;2024-01-11T02:26:29;102734.81;;;-4.58;78.13
83563;BME280;73535;52.500;13.482;2024-01-11T02:28:54;102734.72;;;-4.62;77.94
83563;BME280;73535;52.500;13.482;2024-01-11T02:31:19;102732.41;;;-4.51;78.33
83563;BME280;73535;52.500;13.482;2024-01-11T02:33:44;102738.28;;;-4.57;78.56
83563;BME280;73535;52.500;13.482;2024-01-11T02:36:10;102741.81;;;-4.52;78.50
83563;BME280;73535;52.500;13.482;2024-01-11T02:38:36;102736.50;;;-4.60;78.92
83563;BME280;73535;52.500;13.482;2024-01-11T02:41:02;102743.41;;;-4.57;78.90
83563;BME280;73535;52.500;13.482;2024-01-11T02:43:28;102734.47;;;-4.38;78.74
83563;BME280;73535;52.500;13.482;2024-01-11T02:45:56;102727.38;;;-4.48;79.10
83563;BME280;73535;52.500;13.482;2024-01-11T02:48:27;102717.25;;;-4.42;79.10
83563;BME280;73535;52.500;13.482;2024-01-11T02:50:52;102704.50;;;-4.39;79.14
83563;BME280;73535;52.500;13.482;2024-01-11T02:53:17;102693.34;;;-4.40;79.40
83563;BME280;73535;52.500;13.482;2024-01-11T02:55:43;102700.09;;;-4.45;79.31
83563;BME280;73535;52.500;13.482;2024-01-11T02:58:08;102699.13;;;-4.48;79.32
83563;BME280;73535;52.500;13.482;2024-01-11T03:00:33;102690.56;;;-4.49;79.81
83563;BME280;73535;52.500;13.482;2024-01-11T03:02:58;102703.41;;;-4.49;79.94
83563;BME280;73535;52.500;13.482;2024-01-11T03:05:23;102706.03;;;-4.46;79.51
83563;BME280;73535;52.500;13.482;2024-01-11T03:07:49;102707.78;;;-4.45;79.25
83563;BME280;73535;52.500;13.482;2024-01-11T03:10:14;102716.94;;;-4.54;79.83
83563;BME280;73535;52.500;13.482;2024-01-11T03:12:39;102710.19;;;-4.51;79.84
83563;BME280;73535;52.500;13.482;2024-01-11T03:15:05;102718.78;;;-4.50;79.75
83563;BME280;73535;52.500;13.482;2024-01-11T03:17:30;102709.50;;;-4.44;79.41
83563;BME280;73535;52.500;13.482;2024-01-11T03:19:55;102702.72;;;-4.42;79.44
83563;BME280;73535;52.500;13.482;2024-01-11T03:22:21;102707.00;;;-4.42;79.44
83563;BME280;73535;52.500;13.482;2024-01-11T03:24:46;102699.31;;;-4.41;78.97
83563;BME280;73535;52.500;13.482;2024-01-11T03:27:11;102701.28;;;-4.31;78.96
83563;BME280;73535;52.500;13.482;2024-01-11T03:29:36;102699.31;;;-4.41;78.48
83563;BME280;73535;52.500;13.482;2024-01-11T03:32:02;102702.88;;;-4.36;78.33
83563;BME280;73535;52.500;13.482;2024-01-11T03:34:27;102691.81;;;-4.33;78.13
83563;BME280;73535;52.500;13.482;2024-01-11T03:36:52;102700.16;;;-4.42;78.49
83563;BME280;73535;52.500;13.482;2024-01-11T03:39:17;102698.47;;;-4.41;78.01
83563;BME280;73535;52.500;13.482;2024-01-11T03:41:46;102691.66;;;-4.39;77.60
83563;BME280;73535;52.500;13.482;2024-01-11T03:44:12;102679.50;;;-4.46;78.23
83563;BME280;73535;52.500;13.482;2024-01-11T03:46:37;102666.69;;;-4.46;77.98
83563;BME280;73535;52.500;13.482;2024-01-11T03:49:02;102669.91;;;-4.55;78.48
83563;BME280;73535;52.500;13.482;2024-01-11T03:51:28;102665.56;;;-4.58;79.18
83563;BME280;73535;52.500;13.482;2024-01-11T03:53:53;102674.13;;;-4.59;79.29
83563;BME280;73535;52.500;13.482;2024-01-11T03:56:18;102660.47;;;-4.56;79.52
83563;BME280;73535;52.500;13.482;2024-01-11T03:58:44;102670.84;;;-4.51;79.47
83563;BME280;73535;52.500;13.482;2024-01-11T04:01:10;102666.06;;;-4.36;78.93
83563;BME280;73535;52.500;13.482;2024-01-11T04:03:35;102663.47;;;-4.38;78.85
83563;BME280;73535;52.500;13.482;2024-01-11T04:06:00;102662.81;;;-4.29;78.76
83563;BME280;73535;52.500;13.482;2024-01-11T04:08:26;102662.06;;;-4.25;79.06
83563;BME280;73535;52.500;13.482;2024-01-11T04:10:51;102661.09;;;-4.29;78.36
83563;BME280;73535;52.500;13.482;2024-01-11T04:13:16;102657.81;;;-4.23;78.50
83563;BME280;73535;52.500;13.482;2024-01-11T04:15:41;102651.84;;;-4.24;78.78
83563;BME280;73535;52.500;13.482;2024-01-11T04:18:07;102645.03;;;-4.22;79.33
83563;BME280;73535;52.500;13.482;2024-01-11T04:20:32;102633.88;;;-4.22;78.92
83563;BME280;73535;52.500;13.482;2024-01-11T04:22:58;102641.59;;;-4.21;79.73
83563;BME280;73535;52.500;13.482;2024-01-11T04:25:23;102651.09;;;-4.18;80.18
83563;BME280;73535;52.500;13.482;2024-01-11T04:27:48;102663.16;;;-4.14;80.15
83563;BME280;73535;52.500;13.482;2024-01-11T04:30:13;102664.03;;;-4.14;80.52
83563;BME280;73535;52.500;13.482;2024-01-11T04:32:39;102651.25;;;-4.12;80.65
83563;BME280;73535;52.500;13.482;2024-01-11T04:35:04;102657.41;;;-4.03;80.86
83563;BME280;73535;52.500;13.482;2024-01-11T04:37:30;102651.47;;;-4.02;81.16
83563;BME280;73535;52.500;13.482;2024-01-11T04:39:55;102666.03;;;-4.01;81.38
83563;BME280;73535;52.500;13.482;2024-01-11T04:42:20;102669.56;;;-3.95;81.39
83563;BME280;73535;52.500;13.482;2024-01-11T04:44:45;102664.59;;;-3.88;81.68
83563;BME280;73535;52.500;13.482;2024-01-11T04:47:10;102662.97;;;-3.84;82.27
83563;BME280;73535;52.500;13.482;2024-01-11T04:49:36;102665.53;;;-3.83;82.02
83563;BME280;73535;52.500;13.482;2024-01-11T04:52:01;102645.25;;;-3.71;81.86
83563;BME280;73535;52.500;13.482;2024-01-11T04:54:26;102639.44;;;-3.62;82.37
83563;BME280;73535;52.500;13.482;2024-01-11T04:56:51;102643.06;;;-3.51;82.64
83563;BME280;73535;52.500;13.482;2024-01-11T04:59:17;102632.78;;;-3.51;81.91
83563;BME280;73535;52.500;13.482;2024-01-11T05:01:42;102624.34;;;-3.46;82.48
83563;BME280;73535;52.500;13.482;2024-01-11T05:04:07;102618.34;;;-3.45;83.25
83563;BME280;73535;52.500;13.482;2024-01-11T05:06:32;102615.94;;;-3.37;83.31
83563;BME280;73535;52.500;13.482;2024-01-11T05:08:58;102588.72;;;-3.26;83.02
83563;BME280;73535;52.500;13.482;2024-01-11T05:11:23;102592.13;;;-3.27;82.86
83563;BME280;73535;52.500;13.482;2024-01-11T05:13:50;102638.50;;;-3.21;83.09
83563;BME280;73535;52.500;13.482;2024-01-11T05:16:21;102636.00;;;-3.19;82.75
83563;BME280;73535;52.500;13.482;2024-01-11T05:18:47;102640.31;;;-3.15;83.20
83563;BME280;73535;52.500;13.482;2024-01-11T05:21:13;102618.16;;;-3.09;83.61
83563;BME280;73535;52.500;13.482;2024-01-11T05:23:40;102614.94;;;-2.97;83.18
83563;BME280;73535;52.500;13.482;2024-01-11T05:26:05;102629.44;;;-3.01;83.16
83563;BME280;73535;52.500;13.482;2024-01-11T05:28:30;102633.88;;;-2.94;83.12
83563;BME280;73535;52.500;13.482;2024-01-11T05:30:56;102630.44;;;-2.93;83.14
83563;BME280;73535;52.500;13.482;2024-01-11T05:33:21;102639.97;;;-2.87;83.09
83563;BME280;73535;52.500;13.482;2024-01-11T05:35:46;102618.59;;;-2.84;83.30
83563;BME280;73535;52.500;13.482;2024-01-11T05:38:11;102616.91;;;-2.82;83.06
83563;BME280;73535;52.500;13.482;2024-01-11T05:40:37;102606.66;;;-2.78;83.25
83563;BME280;73535;52.500;13.482;2024-01-11T05:43:02;102621.22;;;-2.78;83.47
83563;BME280;73535;52.500;13.482;2024-01-11T05:45:27;102603.28;;;-2.75;83.30
83563;BME280;73535;52.500;13.482;2024-01-11T05:47:52;102593.91;;;-2.73;83.74
83563;BME280;73535;52.500;13.482;2024-01-11T05:50:18;102594.78;;;-2.71;83.39
83563;BME280;73535;52.500;13.482;2024-01-11T05:52:43;102604.38;;;-2.61;83.23
83563;BME280;73535;52.500;13.482;2024-01-11T05:55:08;102598.34;;;-2.62;83.49
83563;BME280;73535;52.500;13.482;2024-01-11T05:57:33;102606.13;;;-2.57;83.39
83563;BME280;73535;52.500;13.482;2024-01-11T05:59:59;102605.34;;;-2.53;83.55
83563;BME280;73535;52.500;13.482;2024-01-11T06:02:24;102620.75;;;-2.56;83.92
83563;BME280;73535;52.500;13.482;2024-01-11T06:04:49;102620.84;;;-2.50;83.41
83563;BME280;73535;52.500;13.482;2024-01-11T06:07:15;102630.22;;;-2.54;83.68
83563;BME280;73535;52.500;13.482;2024-01-11T06:09:40;102638.09;;;-2.43;83.87
83563;BME280;73535;52.500;13.482;2024-01-11T06:12:05;102625.25;;;-2.40;83.49
83563;BME280;73535;52.500;13.482;2024-01-11T06:14:31;102614.97;;;-2.40;83.79
83563;BME280;73535;52.500;13.482;2024-01-11T06:16:56;102602.19;;;-2.34;83.41
83563;BME280;73535;52.500;13.482;2024-01-11T06:19:22;102597.91;;;-2.35;83.43
83563;BME280;73535;52.500;13.482;2024-01-11T06:21:48;102590.22;;;-2.29;83.83
83563;BME280;73535;52.500;13.482;2024-01-11T06:24:13;102597.88;;;-2.37;83.51
83563;BME280;73535;52.500;13.482;2024-01-11T06:26:38;102611.59;;;-2.36;83.67
83563;BME280;73535;52.500;13.482;2024-01-11T06:29:04;102598.00;;;-2.28;83.34
83563;BME280;73535;52.500;13.482;2024-01-11T06:31:29;102613.34;;;-2.35;83.73
83563;BME280;73535;52.500;13.482;2024-01-11T06:33:54;102609.00;;;-2.39;84.40
83563;BME280;73535;52.500;13.482;2024-01-11T06:36:19;102616.75;;;-2.35;84.24
83563;BME280;73535;52.500;13.482;2024-01-11T06:38:45;102622.03;;;-2.27;83.78
83563;BME280;73535;52.500;13.482;2024-01-11T06:41:10;102597.22;;;-2.22;83.82
83563;BME280;73535;52.500;13.482;2024-01-11T06:43:35;102600.69;;;-2.18;84.16
83563;BME280;73535;52.500;13.482;2024-01-11T06:46:05;102590.41;;;-2.17;83.91
83563;BME280;73535;52.500;13.482;2024-01-11T06:48:31;102585.25;;;-2.18;84.15
83563;BME280;73535;52.500;13.482;2024-01-11T06:50:56;102582.72;;;-2.14;83.98
83563;BME280;73535;52.500;13.482;2024-01-11T06:53:21;102592.19;;;-2.13;83.79
83563;BME280;73535;52.500;13.482;2024-01-11T06:55:46;102587.88;;;-2.14;84.13
83563;BME280;73535;52.500;13.482;2024-01-11T06:58:13;102567.31;;;-2.11;84.24
83563;BME280;73535;52.500;13.482;2024-01-11T07:00:38;102574.94;;;-2.17;84.69
83563;BME280;73535;52.500;13.482;2024-01-11T07:03:08;102578.47;;;-2.09;84.42
83563;BME280;73535;52.500;13.482;2024-01-11T07:05:33;102580.25;;;-2.05;84.10
83563;BME280;73535;52.500;13.482;2024-01-11T07:07:58;102573.31;;;-2.09;84.33
83563;BME280;73535;52.500;13.482;2024-01-11T07:10:24;102559.63;;;-2.08;84.45
83563;BME280;73535;52.500;13.482;2024-01-11T07:12:49;102564.06;;;-1.98;84.26
83563;BME280;73535;52.500;13.482;2024-01-11T07:15:14;102582.91;;;-1.99;84.21
83563;BME280;73535;52.500;13.482;2024-01-11T07:17:40;102591.47;;;-2.00;84.56
83563;BME280;73535;52.500;13.482;2024-01-11T07:20:05;102577.84;;;-1.91;84.60
83563;BME280;73535;52.500;13.482;2024-01-11T07:22:31;102577.88;;;-1.88;84.27
83563;BME280;73535;52.500;13.482;2024-01-11T07:24:56;102577.97;;;-1.82;83.99
83563;BME280;73535;52.500;13.482;2024-01-11T07:27:21;102562.50;;;-1.82;84.07
83563;BME280;73535;52.500;13.482;2024-01-11T07:29:46;102557.38;;;-1.81;84.07
83563;BME280;73535;52.500;13.482;2024-01-11T07:32:12;102574.53;;;-1.81;84.75
83563;BME280;73535;52.500;13.482;2024-01-11T07:34:37;102582.28;;;-1.80;83.99
83563;BME280;73535;52.500;13.482;2024-01-11T07:37:02;102588.25;;;-1.84;84.55
83563;BME280;73535;52.500;13.482;2024-01-11T07:39:27;102585.84;;;-1.70;84.73
83563;BME280;73535;52.500;13.482;2024-01-11T07:41:53;102577.41;;;-1.55;84.80
83563;BME280;73535;52.500;13.482;2024-01-11T07:44:18;102565.41;;;-1.52;84.19
83563;BME280;73535;52.500;13.482;2024-01-11T07:46:43;102571.38;;;-1.56;84.00
83563;BME280;73535;52.500;13.482;2024-01-11T07:49:08;102578.22;;;-1.59;84.79
83563;BME280;73535;52.500;13.482;2024-01-11T07:51:35;102579.16;;;-1.54;84.81
83563;BME280;73535;52.500;13.482;2024-01-11T07:54:00;102573.91;;;-1.59;84.64
83563;BME280;73535;52.500;13.482;2024-01-11T07:56:25;102574.00;;;-1.53;84.60
83563;BME280;73535;52.500;13.482;2024-01-11T07:58:52;102557.69;;;-1.52;84.59
83563;BME280;73535;52.500;13.482;2024-01-11T08:01:17;102553.41;;;-1.50;84.32
83563;BME280;73535;52.500;13.482;2024-01-11T08:03:42;102556.88;;;-1.45;84.46
83563;BME280;73535;52.500;13.482;2024-01-11T08:06:10;102556.03;;;-1.44;84.62
83563;BME280;73535;52.500;13.482;2024-01-11T08:08:35;102561.25;;;-1.38;84.86
83563;BME280;73535;52.500;13.482;2024-01-11T08:11:01;102566.44;;;-1.35;84.65
83563;BME280;73535;52.500;13.482;2024-01-11T08:13:26;102558.66;;;-1.39;84.91
83563;BME280;73535;52.500;13.482;2024-01-11T08:15:52;102561.28;;;-1.35;84.73
83563;BME280;73535;52.500;13.482;2024-01-11T08:18:18;102562.13;;;-1.37;84.89
83563;BME280;73535;52.500;13.482;2024-01-11T08:20:44;102556.06;;;-1.41;84.68
83563;BME280;73535;52.500;13.482;2024-01-11T08:23:09;102564.63;;;-1.42;84.54
83563;BME280;73535;52.500;13.482;2024-01-11T08:25:35;102564.63;;;-1.46;84.97
83563;BME280;73535;52.500;13.482;2024-01-11T08:28:00;102560.31;;;-1.44;84.98
83563;BME280;73535;52.500;13.482;2024-01-11T08:30:25;102560.38;;;-1.38;84.79
83563;BME280;73535;52.500;13.482;2024-01-11T08:32:51;102568.97;;;-1.42;84.93
83563;BME280;73535;52.500;13.482;2024-01-11T08:35:16;102563.78;;;-1.45;85.07
83563;BME280;73535;52.500;13.482;2024-01-11T08:37:41;102550.91;;;-1.39;85.00
83563;BME280;73535;52.500;13.482;2024-01-11T08:40:07;102544.09;;;-1.33;84.99
83563;BME280;73535;52.500;13.482;2024-01-11T08:42:32;102537.22;;;-1.37;84.81
83563;BME280;73535;52.500;13.482;2024-01-11T08:44:58;102551.78;;;-1.40;85.48
83563;BME280;73535;52.500;13.482;2024-01-11T08:47:23;102546.72;;;-1.30;84.97
83563;BME280;73535;52.500;13.482;2024-01-11T08:49:49;102551.06;;;-1.26;84.85
83563;BME280;73535;52.500;13.482;2024-01-11T08:52:14;102541.53;;;-1.34;84.62
83563;BME280;73535;52.500;13.482;2024-01-11T08:54:40;102545.84;;;-1.32;84.99
83563;BME280;73535;52.500;13.482;2024-01-11T08:57:05;102553.03;;;-0.94;86.34
83563;BME280;73535;52.500;13.482;2024-01-11T08:59:30;102539.25;;;-0.98;83.97
83563;BME280;73535;52.500;13.482;2024-01-11T09:01:55;102539.97;;;-1.14;84.60
83563;BME280;73535;52.500;13.482;2024-01-11T09:04:21;102535.66;;;-1.17;85.26
83563;BME280;73535;52.500;13.482;2024-01-11T09:06:46;102504.75;;;-1.13;85.03
83563;BME280;73535;52.500;13.482;2024-01-11T09:09:11;102503.84;;;-1.17;84.84
83563;BME280;73535;52.500;13.482;2024-01-11T09:11:38;102509.88;;;-1.17;85.18
83563;BME280;73535;52.500;13.482;2024-01-11T09:14:04;102509.91;;;-1.13;85.02
83563;BME280;73535;52.500;13.482;2024-01-11T09:16:29;102515.06;;;-1.13;85.24
83563;BME280;73535;52.500;13.482;2024-01-11T09:18:54;102501.25;;;-1.16;85.15
83563;BME280;73535;52.500;13.482;2024-01-11T09:21:19;102495.16;;;-1.28;85.38
83563;BME280;73535;52.500;13.482;2024-01-11T09:23:45;102510.56;;;-1.34;85.58
83563;BME280;73535;52.500;13.482;2024-01-11T09:26:10;102525.19;;;-1.35;85.68
83563;BME280;73535;52.500;13.482;2024-01-11T09:28:35;102522.63;;;-1.30;85.92
83563;BME280;73535;52.500;13.482;2024-01-11T09:31:01;102532.88;;;-1.36;85.86
83563;BME280;73535;52.500;13.482;2024-01-11T09:33:27;102526.94;;;-1.28;85.78
83563;BME280;73535;52.500;13.482;2024-01-11T09:35:52;102520.94;;;-1.31;86.13
83563;BME280;73535;52.500;13.482;2024-01-11T09:38:17;102522.72;;;-1.23;85.74
83563;BME280;73535;52.500;13.482;2024-01-11T09:40:43;102516.75;;;-1.13;85.63
83563;BME280;73535;52.500;13.482;2024-01-11T09:43:08;102514.16;;;-1.16;85.57
83563;BME280;73535;52.500;13.482;2024-01-11T09:45:34;102535.72;;;-1.09;85.27
83563;BME280;73535;52.500;13.482;2024-01-11T09:48:01;102534.91;;;-1.05;85.25
83563;BME280;73535;52.500;13.482;2024-01-11T09:50:28;102528.81;;;-1.11;85.28
83563;BME280;73535;52.500;13.482;2024-01-11T09:52:53;102537.44;;;-1.09;85.66
83563;BME280;73535;52.500;13.482;2024-01-11T09:55:18;102543.50;;;-1.03;85.62
83563;BME280;73535;52.500;13.482;2024-01-11T09:57:45;102549.50;;;-1.04;85.14
83563;BME280;73535;52.500;13.482;2024-01-11T10:00:17;102553.84;;;-1.00;85.31
83563;BME280;73535;52.500;13.482;2024-01-11T10:02:44;102548.66;;;-1.01;85.18
83563;BME280;73535;52.500;13.482;2024-01-11T10:05:10;102537.56;;;-0.94;85.54
83563;BME280;73535;52.500;13.482;2024-01-11T10:07:36;102528.09;;;-0.94;84.89
83563;BME280;73535;52.500;13.482;2024-01-11T10:10:02;102525.50;;;-0.94;84.98
83563;BME280;73535;52.500;13.482;2024-01-11T10:12:28;102527.25;;;-0.90;85.11
83563;BME280;73535;52.500;13.482;2024-01-11T10:14:54;102531.53;;;-0.95;85.48
83563;BME280;73535;52.500;13.482;2024-01-11T10:17:19;102529.00;;;-0.90;85.16
83563;BME280;73535;52.500;13.482;2024-01-11T10:19:45;102540.19;;;-0.88;85.11
83563;BME280;73535;52.500;13.482;2024-01-11T10:22:11;102523.84;;;-0.87;85.50
83563;BME280;73535;52.500;13.482;2024-01-11T10:24:38;102518.63;;;-0.92;85.20
83563;BME280;73535;52.500;13.482;2024-01-11T10:27:04;102502.34;;;-0.85;85.75
83563;BME280;73535;52.500;13.482;2024-01-11T10:29:33;102506.59;;;-0.91;85.34
83563;BME280;73535;52.500;13.482;2024-01-11T10:32:00;102495.47;;;-0.86;85.54
83563;BME280;73535;52.500;13.482;2024-01-11T10:34:25;102502.25;;;-0.95;85.27
83563;BME280;73535;52.500;13.482;2024-01-11T10:36:51;102503.22;;;-0.83;85.22
83563;BME280;73535;52.500;13.482;2024-01-11T10:39:17;102499.81;;;-0.82;85.38
83563;BME280;73535;52.500;13.482;2024-01-11T10:41:47;102493.78;;;-0.79;85.39
83563;BME280;73535;52.500;13.482;2024-01-11T10:44:18;102513.59;;;-0.77;85.04
83563;BME280;73535;52.500;13.482;2024-01-11T10:46:45;102510.19;;;-0.73;85.50
83563;BME280;73535;52.500;13.482;2024-01-11T10:49:11;102518.72;;;-0.80;85.36
83563;BME280;73535;52.500;13.482;2024-01-11T10:51:38;102512.75;;;-0.73;84.97
83563;BME280;73535;52.500;13.482;2024-01-11T10:54:05;102509.31;;;-0.69;85.04
83563;BME280;73535;52.500;13.482;2024-01-11T10:56:31;102506.66;;;-0.84;85.40
83563;BME280;73535;52.500;13.482;2024-01-11T10:58:56;102502.41;;;-0.79;85.51
83563;BME280;73535;52.500;13.482;2024-01-11T11:01:23;102493.75;;;-0.84;85.55
83563;BME280;73535;52.500;13.482;2024-01-11T11:03:50;102497.25;;;-0.79;85.64
83563;BME280;73535;52.500;13.482;2024-01-11T11:06:18;102481.69;;;-0.88;85.74
83563;BME280;73535;52.500;13.482;2024-01-11T11:08:44;102487.69;;;-0.90;85.69
83563;BME280;73535;52.500;13.482;2024-01-11T11:11:10;102495.50;;;-0.80;85.72
83563;BME280;73535;52.500;13.482;2024-01-11T11:13:37;102490.41;;;-0.71;85.34
83563;BME280;73535;52.500;13.482;2024-01-11T11:16:03;102499.91;;;-0.62;84.92
83563;BME280;73535;52.500;13.482;2024-01-11T11:18:32;102507.66;;;-0.61;85.28
83563;BME280;73535;52.500;13.482;2024-01-11T11:21:00;102518.88;;;-0.55;85.15
83563;BME280;73535;52.500;13.482;2024-01-11T11:23:25;102511.13;;;-0.54;84.82
83563;BME280;73535;52.500;13.482;2024-01-11T11:25:54;102504.25;;;-0.49;84.98
83563;BME280;73535;52.500;13.482;2024-01-11T11:28:20;102498.28;;;-0.45;84.67
83563;BME280;73535;52.500;13.482;2024-01-11T11:30:48;102505.16;;;-0.47;84.98
83563;BME280;73535;52.500;13.482;2024-01-11T11:33:22;102513.78;;;-0.37;84.66
83563;BME280;73535;52.500;13.482;2024-01-11T11:35:51;102522.41;;;-0.40;84.67
83563;BME280;73535;52.500;13.482;2024-01-11T11:38:26;102528.47;;;-0.38;85.03
83563;BME280;73535;52.500;13.482;2024-01-11T11:40:55;102526.72;;;-0.37;85.22
83563;BME280;73535;52.500;13.482;2024-01-11T11:43:21;102536.22;;;-0.30;84.96
83563;BME280;73535;52.500;13.482;2024-01-11T11:45:47;102526.75;;;-0.28;85.09
83563;BME280;73535;52.500;13.482;2024-01-11T11:53:33;102517.31;;;-0.22;85.46
83563;BME280;73535;52.500;13.482;2024-01-11T11:55:59;102512.16;;;-0.19;85.29
83563;BME280;73535;52.500;13.482;2024-01-11T11:58:25;102513.91;;;-0.06;85.04
83563;BME280;73535;52.500;13.482;2024-01-11T12:00:50;102512.16;;;-0.14;85.19
83563;BME280;73535;52.500;13.482;2024-01-11T12:03:16;102506.19;;;-0.07;85.04
83563;BME280;73535;52.500;13.482;2024-01-11T12:05:41;102499.28;;;-0.05;85.03
83563;BME280;73535;52.500;13.482;2024-01-11T12:08:08;102488.06;;;-0.09;85.20
83563;BME280;73535;52.500;13.482;2024-01-11T12:10:33;102477.75;;;-0.03;85.28
83563;BME280;73535;52.500;13.482;2024-01-11T12:12:58;102495.84;;;-0.06;85.39
83563;BME280;73535;52.500;13.482;2024-01-11T12:15:26;102494.13;;;-0.02;85.33
83563;BME280;73535;52.500;13.482;2024-01-11T12:17:57;102495.88;;;-0.01;85.45
83563;BME280;73535;52.500;13.482;2024-01-11T12:20:23;102500.19;;;0.00;85.29
83563;BME280;73535;52.500;13.482;2024-01-11T12:22:48;102498.41;;;-0.06;85.52
83563;BME280;73535;52.500;13.482;2024-01-11T12:25:14;102497.56;;;-0.09;86.08
83563;BME280;73535;52.500;13.482;2024-01-11T12:27:39;102501.84;;;-0.08;86.08
83563;BME280;73535;52.500;13.482;2024-01-11T12:30:05;102505.31;;;-0.08;86.53
83563;BME280;73535;52.500;13.482;2024-01-11T12:32:32;102502.75;;;0.02;86.26
83563;BME280;73535;52.500;13.482;2024-01-11T12:34:57;102494.13;;;-0.02;86.55
83563;BME280;73535;52.500;13.482;2024-01-11T12:37:23;102484.69;;;0.00;86.35